createdAt,value
2016-11-06T14:18:33.739Z,7.6
2016-11-06T14:19:34.363Z,7.66
2016-11-06T14:20:34.963Z,7.5
2016-11-06T14:21:35.574Z,7.63
2016-11-06T14:22:36.176Z,7.56
2016-11-06T14:23:36.784Z,7.54
2016-11-06T14:24:37.386Z,7.56
2016-11-06T14:25:37.991Z,7.66
2016-11-06T14:26:38.613Z,7.67
2016-11-06T14:27:39.227Z,7.75
2016-11-06T14:28:39.831Z,7.75
2016-11-06T14:29:40.427Z,7.66
2016-11-06T14:30:41.024Z,7.63
2016-11-06T14:31:41.626Z,7.57
2016-11-06T14:32:42.216Z,7.63
2016-11-06T14:33:42.828Z,7.67
2016-11-06T14:34:43.433Z,7.66
2016-11-06T14:35:44.041Z,7.6
2016-11-06T14:36:44.640Z,7.54
2016-11-06T14:37:45.328Z,7.6
2016-11-06T14:38:45.883Z,7.6
2016-11-06T14:39:46.485Z,7.58
2016-11-06T14:40:47.089Z,7.51
2016-11-06T14:41:47.707Z,7.56
2016-11-06T14:42:48.317Z,7.51
2016-11-06T14:43:48.926Z,7.61
2016-11-06T14:44:49.614Z,7.6
2016-11-06T14:45:50.208Z,7.6
2016-11-06T14:46:50.817Z,7.58
2016-11-06T14:47:51.416Z,7.56
2016-11-06T14:48:52.022Z,7.61
2016-11-06T14:49:52.621Z,7.6
2016-11-06T14:50:53.210Z,7.58
2016-11-06T14:51:53.842Z,7.54
2016-11-06T14:52:54.439Z,7.56
2016-11-06T14:53:55.050Z,7.57
2016-11-06T14:54:55.654Z,7.6
2016-11-06T14:55:56.256Z,7.5
2016-11-06T14:56:56.855Z,7.63
2016-11-06T14:57:57.457Z,7.6
2016-11-06T14:58:58.065Z,7.6
2016-11-06T14:59:58.666Z,7.61
2016-11-06T15:00:59.261Z,7.58
2016-11-06T15:01:59.864Z,7.63
2016-11-06T15:03:00.466Z,7.56
2016-11-06T15:04:01.071Z,7.58
2016-11-06T15:05:01.701Z,7.58
2016-11-06T15:06:02.324Z,7.53
2016-11-06T15:07:02.947Z,7.54
2016-11-06T15:08:03.558Z,7.53
2016-11-06T15:09:04.161Z,7.63
2016-11-06T15:10:04.862Z,7.56
2016-11-06T15:11:05.464Z,7.57
2016-11-06T15:12:06.067Z,7.58
2016-11-06T15:13:06.687Z,7.56
2016-11-06T15:14:07.285Z,7.57
2016-11-06T15:15:07.887Z,7.47
2016-11-06T15:16:08.482Z,7.47
2016-11-06T15:17:09.090Z,7.56
2016-11-06T15:18:09.693Z,7.56
2016-11-06T15:19:10.302Z,7.51
2016-11-06T15:20:10.907Z,7.57
2016-11-06T15:21:11.503Z,7.58
2016-11-06T15:22:12.103Z,7.56
2016-11-06T15:23:12.739Z,7.61
2016-11-06T15:24:13.332Z,7.56
2016-11-06T15:25:13.927Z,7.56
2016-11-06T15:26:14.532Z,7.57
2016-11-06T15:27:15.141Z,7.57
2016-11-06T15:28:15.748Z,7.54
2016-11-06T15:29:16.356Z,7.58
2016-11-06T15:30:16.994Z,7.54
2016-11-06T15:31:17.648Z,7.58
2016-11-06T15:32:18.244Z,7.54
2016-11-06T15:33:18.841Z,7.56
2016-11-06T15:34:19.452Z,7.48
2016-11-06T15:35:20.053Z,7.53
2016-11-06T15:36:20.653Z,7.5
2016-11-06T15:37:21.244Z,7.63
2016-11-06T15:38:21.844Z,7.6
2016-11-06T15:39:22.436Z,7.51
2016-11-06T15:40:23.042Z,7.61
2016-11-06T15:41:23.649Z,7.57
2016-11-06T15:42:24.250Z,7.63
2016-11-06T15:43:24.862Z,7.5
2016-11-06T15:44:25.462Z,7.58
2016-11-06T15:45:26.067Z,7.61
2016-11-06T15:46:26.683Z,7.53
2016-11-06T15:47:27.290Z,7.43
2016-11-06T15:48:27.882Z,7.51
2016-11-06T15:49:28.484Z,7.5
2016-11-06T15:50:29.145Z,7.45
2016-11-06T15:51:29.757Z,7.47
2016-11-06T15:52:30.349Z,7.51
2016-11-06T15:53:30.952Z,7.45
2016-11-06T15:54:31.559Z,7.47
2016-11-06T15:55:32.156Z,7.45
2016-11-06T15:56:32.759Z,7.43
2016-11-06T15:57:33.361Z,7.38
2016-11-06T15:58:33.959Z,7.39
2016-11-06T15:59:34.556Z,7.45
2016-11-06T16:00:35.156Z,7.36
2016-11-06T16:01:35.812Z,7.42
2016-11-06T16:02:36.413Z,7.47
2016-11-06T16:03:37.037Z,7.4
2016-11-06T16:04:37.687Z,7.45
2016-11-06T16:05:38.286Z,7.47
2016-11-06T16:06:38.889Z,7.45
2016-11-06T16:07:39.485Z,7.45
2016-11-06T16:08:40.082Z,7.5
2016-11-06T16:09:40.687Z,7.47
2016-11-06T16:10:41.291Z,7.51
2016-11-06T16:11:41.895Z,7.47
2016-11-06T16:12:42.525Z,7.45
2016-11-06T16:13:43.121Z,7.43
2016-11-06T16:14:43.752Z,7.47
2016-11-06T16:15:44.343Z,7.43
2016-11-06T16:16:44.950Z,7.35
2016-11-06T16:17:45.553Z,7.47
2016-11-06T16:18:46.147Z,7.45
2016-11-06T16:19:46.750Z,7.45
2016-11-06T16:20:47.343Z,7.45
2016-11-06T16:21:47.951Z,7.47
2016-11-06T16:22:48.584Z,7.48
2016-11-06T16:23:49.166Z,7.43
2016-11-06T16:24:49.765Z,7.42
2016-11-06T16:25:50.359Z,7.43
2016-11-06T16:26:50.955Z,7.43
2016-11-06T16:27:51.604Z,7.42
2016-11-06T16:28:52.221Z,7.35
2016-11-06T16:29:52.828Z,7.36
2016-11-06T16:30:53.420Z,7.42
2016-11-06T16:31:54.157Z,7.4
2016-11-06T16:32:54.754Z,7.4
2016-11-06T16:33:55.377Z,7.42
2016-11-06T16:34:55.988Z,7.36
2016-11-06T16:35:56.589Z,7.38
2016-11-06T16:36:57.241Z,7.38
2016-11-06T16:37:57.853Z,7.45
2016-11-06T16:38:58.507Z,7.42
2016-11-06T16:39:59.103Z,7.35
2016-11-06T16:40:59.711Z,7.35
2016-11-06T16:42:00.306Z,7.4
2016-11-06T16:43:00.919Z,7.33
2016-11-06T16:44:01.557Z,7.29
2016-11-06T16:45:02.161Z,7.36
2016-11-06T16:46:02.792Z,7.31
2016-11-06T16:47:03.433Z,7.39
2016-11-06T16:48:04.042Z,7.36
2016-11-06T16:49:04.639Z,7.38
2016-11-06T16:50:05.236Z,7.4
2016-11-06T16:51:05.867Z,7.35
2016-11-06T16:52:06.460Z,7.42
2016-11-06T16:53:07.061Z,7.42
2016-11-06T16:54:07.662Z,7.43
2016-11-06T16:55:08.255Z,7.47
2016-11-06T16:56:08.857Z,7.5
2016-11-06T16:57:09.450Z,7.36
2016-11-06T16:58:10.066Z,7.4
2016-11-06T16:59:10.664Z,7.35
2016-11-06T17:00:11.271Z,7.43
2016-11-06T17:01:11.870Z,7.45
2016-11-06T17:02:12.464Z,7.4
2016-11-06T17:03:13.075Z,7.43
2016-11-06T17:04:13.698Z,7.4
2016-11-06T17:05:14.302Z,7.39
2016-11-06T17:06:14.944Z,7.39
2016-11-06T17:07:15.541Z,7.4
2016-11-06T17:08:16.154Z,7.36
2016-11-06T17:09:16.767Z,7.35
2016-11-06T17:10:17.383Z,7.42
2016-11-06T17:11:17.988Z,7.42
2016-11-06T17:12:18.593Z,7.39
2016-11-06T17:13:19.215Z,7.42
2016-11-06T17:14:19.824Z,7.43
2016-11-06T17:15:20.437Z,7.38
2016-11-06T17:16:21.038Z,7.42
2016-11-06T17:17:21.698Z,7.4
2016-11-06T17:18:22.303Z,7.39
2016-11-06T17:19:22.912Z,7.4
2016-11-06T17:20:23.534Z,7.33
2016-11-06T17:21:24.137Z,7.42
2016-11-06T17:22:24.819Z,7.42
2016-11-06T17:23:25.439Z,7.36
2016-11-06T17:24:26.039Z,7.32
2016-11-06T17:25:26.657Z,7.32
2016-11-06T17:26:27.292Z,7.25
2016-11-06T17:27:27.897Z,7.24
2016-11-06T17:28:28.522Z,7.25
2016-11-06T17:29:29.143Z,7.23
2016-11-06T17:30:29.772Z,7.29
2016-11-06T17:31:30.427Z,7.32
2016-11-06T17:32:31.058Z,7.43
2016-11-06T17:33:32.668Z,7.31
2016-11-06T17:34:33.276Z,7.32
2016-11-06T17:35:33.925Z,7.32
2016-11-06T17:36:34.540Z,7.36
2016-11-06T17:37:35.133Z,7.36
2016-11-06T17:38:35.747Z,7.39
2016-11-06T17:39:36.376Z,7.29
2016-11-06T17:40:36.994Z,7.32
2016-11-06T17:41:37.591Z,7.31
2016-11-06T17:42:38.231Z,7.29
2016-11-06T17:43:38.939Z,7.28
2016-11-06T17:44:39.543Z,7.24
2016-11-06T17:45:40.163Z,7.24
2016-11-06T17:46:40.764Z,7.24
2016-11-06T17:47:41.366Z,7.25
2016-11-06T17:48:41.973Z,7.28
2016-11-06T17:49:42.593Z,7.32
2016-11-06T17:50:43.181Z,7.29
2016-11-06T17:51:43.790Z,7.29
2016-11-06T17:52:44.399Z,7.28
2016-11-06T17:53:45.017Z,7.29
2016-11-06T17:54:45.633Z,7.31
2016-11-06T17:55:46.246Z,7.32
2016-11-06T17:56:46.861Z,7.31
2016-11-06T17:57:47.471Z,7.25
2016-11-06T17:58:48.081Z,7.29
2016-11-06T17:59:48.729Z,7.25
2016-11-06T18:00:49.364Z,7.25
2016-11-06T18:01:49.979Z,7.23
2016-11-06T18:02:50.590Z,7.29
2016-11-06T18:03:51.246Z,7.28
2016-11-06T18:04:51.866Z,7.28
2016-11-06T18:05:52.498Z,7.17
2016-11-06T18:06:53.115Z,7.28
2016-11-06T18:07:53.739Z,7.2
2016-11-06T18:08:54.382Z,7.11
2016-11-06T18:09:55.043Z,7.17
2016-11-06T18:10:55.662Z,7.2
2016-11-06T18:11:56.264Z,7.29
2016-11-06T18:12:56.885Z,7.24
2016-11-06T18:13:57.508Z,7.24
2016-11-06T18:14:58.119Z,7.2
2016-11-06T18:15:58.722Z,7.17
2016-11-06T18:16:59.342Z,7.07
2016-11-06T18:17:59.942Z,7.1
2016-11-06T18:19:00.548Z,7.07
2016-11-06T18:20:01.188Z,7.07
2016-11-06T18:21:01.827Z,7.05
2016-11-06T18:22:02.445Z,7.02
2016-11-06T18:23:03.060Z,7.02
2016-11-06T18:24:03.661Z,7.03
2016-11-06T18:25:04.265Z,7.05
2016-11-06T18:26:04.878Z,6.95
2016-11-06T18:27:05.521Z,6.99
2016-11-06T18:28:06.139Z,6.95
2016-11-06T18:29:06.775Z,6.95
2016-11-06T18:30:07.420Z,7
2016-11-06T18:31:08.035Z,6.97
2016-11-06T18:32:08.650Z,6.97
2016-11-06T18:33:09.268Z,6.97
2016-11-06T18:34:09.865Z,7.06
2016-11-06T18:35:10.489Z,6.97
2016-11-06T18:36:11.187Z,7
2016-11-06T18:37:11.832Z,6.95
2016-11-06T18:38:12.521Z,6.97
2016-11-06T18:39:13.127Z,7.02
2016-11-06T18:40:13.729Z,6.96
2016-11-06T18:41:14.344Z,6.99
2016-11-06T18:42:14.976Z,6.96
2016-11-06T18:43:15.598Z,6.92
2016-11-06T18:44:16.230Z,6.93
2016-11-06T18:45:16.834Z,6.95
2016-11-06T18:46:17.517Z,6.88
2016-11-06T18:47:18.189Z,6.99
2016-11-06T18:48:18.797Z,6.93
2016-11-06T18:49:19.408Z,6.89
2016-11-06T18:50:20.023Z,6.89
2016-11-06T18:51:20.653Z,6.85
2016-11-06T18:52:21.275Z,6.89
2016-11-06T18:53:21.889Z,6.89
2016-11-06T18:54:22.525Z,6.82
2016-11-06T18:55:23.166Z,6.81
2016-11-06T18:56:23.769Z,6.79
2016-11-06T18:57:24.452Z,6.75
2016-11-06T18:58:25.063Z,6.78
2016-11-06T18:59:25.764Z,6.79
2016-11-06T19:00:26.371Z,6.72
2016-11-06T19:01:27.002Z,6.82
2016-11-06T19:02:27.624Z,6.78
2016-11-06T19:03:28.403Z,6.78
2016-11-06T19:04:29.039Z,6.7
2016-11-06T19:05:29.658Z,6.7
2016-11-06T19:06:30.276Z,6.67
2016-11-06T19:07:30.952Z,6.69
2016-11-06T19:08:31.708Z,6.74
2016-11-06T19:09:32.252Z,6.67
2016-11-06T19:10:32.852Z,6.69
2016-11-06T19:11:33.476Z,6.62
2016-11-06T19:12:34.078Z,6.66
2016-11-06T19:13:34.690Z,6.62
2016-11-06T19:14:35.299Z,6.64
2016-11-06T19:15:35.909Z,6.63
2016-11-06T19:16:36.607Z,6.57
2016-11-06T19:17:37.246Z,6.63
2016-11-06T19:18:37.888Z,6.66
2016-11-06T19:19:38.622Z,6.62
2016-11-06T19:20:39.229Z,6.54
2016-11-06T19:21:39.828Z,6.54
2016-11-06T19:22:40.453Z,6.56
2016-11-06T19:23:41.063Z,6.51
2016-11-06T19:24:41.672Z,6.59
2016-11-06T19:25:42.375Z,6.52
2016-11-06T19:26:43.153Z,6.62
2016-11-06T19:27:43.801Z,6.56
2016-11-06T19:28:44.470Z,6.64
2016-11-06T19:29:45.073Z,6.56
2016-11-06T19:30:45.847Z,6.56
2016-11-06T19:31:46.478Z,6.64
2016-11-06T19:32:47.097Z,6.57
2016-11-06T19:33:47.747Z,6.56
2016-11-06T19:34:48.419Z,6.62
2016-11-06T19:35:49.126Z,6.52
2016-11-06T19:36:49.763Z,6.56
2016-11-06T19:37:50.430Z,6.54
2016-11-06T19:38:51.125Z,6.51
2016-11-06T19:39:51.751Z,6.52
2016-11-06T19:40:52.420Z,6.57
2016-11-06T19:41:53.050Z,6.51
2016-11-06T19:42:53.708Z,6.54
2016-11-06T19:43:54.408Z,6.54
2016-11-06T19:44:55.087Z,6.46
2016-11-06T19:45:55.807Z,6.52
2016-11-06T19:46:56.441Z,6.51
2016-11-06T19:47:57.104Z,6.39
2016-11-06T19:48:57.821Z,6.49
2016-11-06T19:49:58.473Z,6.46
2016-11-06T19:50:59.132Z,6.49
2016-11-06T19:51:59.801Z,6.49
2016-11-06T19:53:00.520Z,6.41
2016-11-06T19:54:01.178Z,6.46
2016-11-06T19:55:01.813Z,6.45
2016-11-06T19:56:02.477Z,6.48
2016-11-06T19:57:03.140Z,6.44
2016-11-06T19:58:03.817Z,6.51
2016-11-06T19:59:04.562Z,6.44
2016-11-06T20:00:05.314Z,6.44
2016-11-06T20:01:06.220Z,6.41
2016-11-06T20:02:06.882Z,6.48
2016-11-06T20:03:07.497Z,6.52
2016-11-06T20:04:08.136Z,6.54
2016-11-06T20:05:08.929Z,6.56
2016-11-06T20:06:09.569Z,6.46
2016-11-06T20:07:10.215Z,6.51
2016-11-06T20:08:10.879Z,6.49
2016-11-06T20:09:11.580Z,6.54
2016-11-06T20:10:12.255Z,6.57
2016-11-06T20:11:12.922Z,6.51
2016-11-06T20:12:13.588Z,6.56
2016-11-06T20:13:14.302Z,6.64
2016-11-06T20:14:14.952Z,6.63
2016-11-06T20:15:15.657Z,6.63
2016-11-06T20:16:16.323Z,6.64
2016-11-06T20:17:17.044Z,6.66
2016-11-06T20:18:17.791Z,6.67
2016-11-06T20:19:18.447Z,6.66
2016-11-06T20:20:19.168Z,6.66
2016-11-06T20:21:19.848Z,6.59
2016-11-06T20:22:20.455Z,6.69
2016-11-06T20:23:21.114Z,6.67
2016-11-06T20:24:21.748Z,6.72
2016-11-06T20:25:22.453Z,6.7
2016-11-06T20:26:23.135Z,6.72
2016-11-06T20:27:23.855Z,6.75
2016-11-06T20:28:24.563Z,6.74
2016-11-06T20:29:25.243Z,6.77
2016-11-06T20:30:25.900Z,6.78
2016-11-06T20:31:26.632Z,6.75
2016-11-06T20:32:27.426Z,6.77
2016-11-06T20:33:28.119Z,6.72
2016-11-06T20:34:28.724Z,6.77
2016-11-06T20:35:29.529Z,6.72
2016-11-06T20:36:30.279Z,6.72
2016-11-06T20:37:30.919Z,6.79
2016-11-06T20:38:31.529Z,6.75
2016-11-06T20:39:32.215Z,6.72
2016-11-06T20:40:33.084Z,6.7
2016-11-06T20:41:33.896Z,6.74
2016-11-06T20:42:34.765Z,6.7
2016-11-06T20:43:35.395Z,6.72
2016-11-06T20:44:36.473Z,6.77
2016-11-06T20:45:37.558Z,6.75
2016-11-06T20:46:38.369Z,6.67
2016-11-06T20:47:39.118Z,6.67
2016-11-06T20:48:40.070Z,6.6
2016-11-06T20:49:40.848Z,6.49
2016-11-06T20:50:41.718Z,6.56
2016-11-06T20:51:42.557Z,6.51
2016-11-06T20:52:43.527Z,6.49
2016-11-06T20:53:44.426Z,6.52
2016-11-06T20:54:45.147Z,6.52
2016-11-06T20:55:45.964Z,6.48
2016-11-06T20:56:46.625Z,6.48
2016-11-06T20:57:47.500Z,6.39
2016-11-06T20:58:48.208Z,6.46
2016-11-06T20:59:49.038Z,6.39
2016-11-06T21:00:49.568Z,6.39
2016-11-06T21:01:50.308Z,6.45
2016-11-06T21:02:50.934Z,6.28
2016-11-06T21:03:51.766Z,6.33
2016-11-06T21:04:52.375Z,6.36
2016-11-06T21:05:52.992Z,6.31
2016-11-06T21:06:54.050Z,6.3
2016-11-06T21:07:55.085Z,6.24
2016-11-06T21:08:55.984Z,6.31
2016-11-06T21:09:56.859Z,6.2
2016-11-06T21:10:57.483Z,6.24
2016-11-06T21:11:58.132Z,6.28
2016-11-06T21:12:58.824Z,6.16
2016-11-06T21:13:59.455Z,6.16
2016-11-06T21:15:00.104Z,6.22
2016-11-06T21:16:00.731Z,6.17
2016-11-06T21:17:01.409Z,6.17
2016-11-06T21:18:02.454Z,6.17
2016-11-06T21:19:03.225Z,6.14
2016-11-06T21:20:03.849Z,6.2
2016-11-06T21:21:04.605Z,6.19
2016-11-06T21:22:05.253Z,6.19
2016-11-06T21:23:05.933Z,6.17
2016-11-06T21:24:06.629Z,6.2
2016-11-06T21:25:07.991Z,6.22
2016-11-06T21:26:08.642Z,6.17
2016-11-06T21:27:09.357Z,6.17
2016-11-06T21:28:09.987Z,6.16
2016-11-06T21:29:10.643Z,6.27
2016-11-06T21:30:11.292Z,6.17
2016-11-06T21:31:11.946Z,6.11
2016-11-06T21:32:12.732Z,6.17
2016-11-06T21:33:13.718Z,6.19
2016-11-06T21:34:14.633Z,6.08
2016-11-06T21:35:15.677Z,6.2
2016-11-06T21:36:16.339Z,6.27
2016-11-06T21:37:17.007Z,6.16
2016-11-06T21:38:17.655Z,6.16
2016-11-06T21:39:18.292Z,6.26
2016-11-06T21:40:19.489Z,6.19
2016-11-06T21:41:20.312Z,6.16
2016-11-06T21:42:21.478Z,6.24
2016-11-06T21:43:22.110Z,6.2
2016-11-06T21:44:22.832Z,6.16
2016-11-06T21:45:23.604Z,6.2
2016-11-06T21:46:24.382Z,6.16
2016-11-06T21:47:25.097Z,6.19
2016-11-06T21:48:25.721Z,6.19
2016-11-06T21:49:26.669Z,6.22
2016-11-06T21:50:27.274Z,6.2
2016-11-06T21:51:27.898Z,6.2
2016-11-06T21:52:28.534Z,6.16
2016-11-06T21:53:29.152Z,6.19
2016-11-06T21:54:30.462Z,6.19
2016-11-06T21:55:31.289Z,6.14
2016-11-06T21:56:32.088Z,6.09
2016-11-06T21:57:32.927Z,6.12
2016-11-06T21:58:33.553Z,6.09
2016-11-06T21:59:34.187Z,6.08
2016-11-06T22:00:34.814Z,6.08
2016-11-06T22:01:35.456Z,6.02
2016-11-06T22:02:36.100Z,6.07
2016-11-06T22:03:36.756Z,6.07
2016-11-06T22:04:37.444Z,6.09
2016-11-06T22:05:38.092Z,6.09
2016-11-06T22:06:38.750Z,6.07
2016-11-06T22:07:39.433Z,6.07
2016-11-06T22:08:40.012Z,6.07
2016-11-06T22:09:40.655Z,6.09
2016-11-06T22:10:41.360Z,5.99
2016-11-06T22:11:42.014Z,6.05
2016-11-06T22:12:42.648Z,6.04
2016-11-06T22:13:43.292Z,5.99
2016-11-06T22:14:44.028Z,5.94
2016-11-06T22:15:44.621Z,5.94
2016-11-06T22:16:45.283Z,5.93
2016-11-06T22:17:45.999Z,5.94
2016-11-06T22:18:46.667Z,5.94
2016-11-06T22:19:47.322Z,5.89
2016-11-06T22:20:47.934Z,5.97
2016-11-06T22:21:48.572Z,5.98
2016-11-06T22:22:49.301Z,5.94
2016-11-06T22:23:49.902Z,5.89
2016-11-06T22:24:50.532Z,6.02
2016-11-06T22:25:51.137Z,5.91
2016-11-06T22:26:51.738Z,6.02
2016-11-06T22:27:52.379Z,5.98
2016-11-06T22:28:53.380Z,5.86
2016-11-06T22:29:54.059Z,5.91
2016-11-06T22:30:54.677Z,5.98
2016-11-06T22:31:56.611Z,5.91
2016-11-06T22:32:57.309Z,5.89
2016-11-06T22:33:57.929Z,5.98
2016-11-06T22:34:58.591Z,5.98
2016-11-06T22:35:59.507Z,6.02
2016-11-06T22:37:00.119Z,5.98
2016-11-06T22:38:00.825Z,5.98
2016-11-06T22:39:01.477Z,5.93
2016-11-06T22:40:02.071Z,6.01
2016-11-06T22:41:03.060Z,6.02
2016-11-06T22:42:04.612Z,5.99
2016-11-06T22:43:05.361Z,5.9
2016-11-06T22:44:05.975Z,6.04
2016-11-06T22:45:06.613Z,5.98
2016-11-06T22:46:07.231Z,6.07
2016-11-06T22:47:07.852Z,5.97
2016-11-06T22:48:08.474Z,5.94
2016-11-06T22:49:09.085Z,5.87
2016-11-06T22:50:09.705Z,5.91
2016-11-06T22:51:10.336Z,5.97
2016-11-06T22:52:10.960Z,5.94
2016-11-06T22:53:11.569Z,5.97
2016-11-06T22:54:12.172Z,5.9
2016-11-06T22:55:12.773Z,5.94
2016-11-06T22:56:13.375Z,5.94
2016-11-06T22:57:13.978Z,6.02
2016-11-06T22:58:14.575Z,5.94
2016-11-06T22:59:15.187Z,5.97
2016-11-06T23:00:15.800Z,5.9
2016-11-06T23:01:16.402Z,5.94
2016-11-06T23:02:17.015Z,5.9
2016-11-06T23:03:17.625Z,5.91
2016-11-06T23:04:18.253Z,5.91
2016-11-06T23:05:18.857Z,5.94
2016-11-06T23:06:19.461Z,5.98
2016-11-06T23:07:20.065Z,5.93
2016-11-06T23:08:20.683Z,5.9
2016-11-06T23:09:21.290Z,5.9
2016-11-06T23:10:21.904Z,5.91
2016-11-06T23:11:22.558Z,6.04
2016-11-06T23:12:23.165Z,5.99
2016-11-06T23:13:23.774Z,5.94
2016-11-06T23:14:24.374Z,5.97
2016-11-06T23:15:24.983Z,5.89
2016-11-06T23:16:25.585Z,5.87
2016-11-06T23:17:26.313Z,6.02
2016-11-06T23:18:26.920Z,5.89
2016-11-06T23:19:27.542Z,5.91
2016-11-06T23:20:28.158Z,5.97
2016-11-06T23:21:28.777Z,5.86
2016-11-06T23:22:29.373Z,5.87
2016-11-06T23:23:29.979Z,5.97
2016-11-06T23:24:30.576Z,5.87
2016-11-06T23:25:31.178Z,5.9
2016-11-06T23:26:31.777Z,5.91
2016-11-06T23:27:32.379Z,5.89
2016-11-06T23:28:32.981Z,5.84
2016-11-06T23:29:33.599Z,5.89
2016-11-06T23:30:34.206Z,5.89
2016-11-06T23:31:34.826Z,5.9
2016-11-06T23:32:35.456Z,5.86
2016-11-06T23:33:36.091Z,5.89
2016-11-06T23:34:36.663Z,5.98
2016-11-06T23:35:37.281Z,5.94
2016-11-06T23:36:37.898Z,5.84
2016-11-06T23:37:38.508Z,5.87
2016-11-06T23:38:39.142Z,5.9
2016-11-06T23:39:39.749Z,5.91
2016-11-06T23:40:40.351Z,5.9
2016-11-06T23:41:40.950Z,5.84
2016-11-06T23:42:41.609Z,5.86
2016-11-06T23:43:42.210Z,5.83
2016-11-06T23:44:42.814Z,5.87
2016-11-06T23:45:43.429Z,5.83
2016-11-06T23:46:44.041Z,5.86
2016-11-06T23:47:44.727Z,5.9
2016-11-06T23:48:45.338Z,5.82
2016-11-06T23:49:45.940Z,5.84
2016-11-06T23:50:46.549Z,5.82
2016-11-06T23:51:47.161Z,5.73
2016-11-06T23:52:47.777Z,5.84
2016-11-06T23:53:48.381Z,5.84
2016-11-06T23:54:48.996Z,5.79
2016-11-06T23:55:49.699Z,5.79
2016-11-06T23:56:50.314Z,5.8
2016-11-06T23:57:50.921Z,5.79
2016-11-06T23:58:51.519Z,5.69
2016-11-06T23:59:52.139Z,5.75
